aussie ACE2'S WEATHER STATIONaussie

Speaker Icon Turns Ambient Background Sounds ON/OFF
Select which page style from below(a cookie will remember your selection for future use for style)
Standard Style Theme Current Conditions Style Changer

Latitude S 35° 06' 39"   Longitude E 138° 31' 40"   Elevation 102 m

OBSERVATIONS  0 - 24  HOURS

00-24 HOURS 24-48 HOURS 48-72 HOURS 72-96 HOURS 96-120 HOURS Navigation Menu

Date/Time
WST
temperature
°C
Dew Point
°C
Humidity
%
Wind Speed
km/h
Wind Gust
km/h
Wind
Direction
Barometer
mb
Rain Today
mm
21/10:30pm 10.3 5.5 72 0.0 0.0 1013.2 0.0
21/10:00pm 10.7 5.7 71 2.5 3.6 1013.2 0.0
21/09:30pm 10.7 5.7 71 0.0 0.0 1013.2 0.0
21/09:00pm 10.9 6.1 72 0.0 2.5 1013.2 0.0
21/08:30pm 11.0 6.1 72 0.0 2.5 1013.2 0.0
21/08:00pm 11.5 6.4 71 0.0 0.0 1013.2 0.0
21/07:30pm 11.9 6.8 71 0.0 1.1 1013.2 0.0
21/07:00pm 12.4 7.3 71 1.1 2.5 1013.2 0.0
21/06:30pm 13.1 6.9 66 1.1 2.5 1013.2 0.0
21/06:00pm 14.0 6.8 62 0.0 2.5 1013.2 0.0
21/05:30pm 15.3 6.3 55 0.0 0.0 1013.2 0.0
21/05:00pm 17.2 6.7 50 0.0 0.0 1013.2 0.0
21/04:30pm 18.7 5.2 41 0.0 1.1 1013.2 0.0
21/04:00pm 20.0 6.4 41 1.1 2.5 1013.2 0.0
21/03:30pm 21.4 7.3 40 1.1 3.6 1013.2 0.0
21/03:00pm 21.4 7.3 40 1.1 6.1 1013.2 0.0
21/02:30pm 21.9 7.3 39 1.1 5.0 1013.2 0.0
21/02:00pm 25.1 6.8 31 2.5 5.0 1013.2 0.0
21/01:30pm 25.3 7.0 31 2.5 8.6 1013.2 0.0
21/01:00pm 24.2 6.5 32 2.5 5.0 1013.2 0.0
21/12:30pm 21.4 8.7 44 2.5 6.1 1013.2 0.0
21/12:00pm 24.0 9.6 40 3.6 11.2 1013.2 0.0
21/11:30am 24.2 9.8 40 2.5 9.7 1013.2 0.0
21/11:00am 22.2 9.7 45 2.5 13.3 1013.2 0.0
21/10:30am 20.6 10.1 51 3.6 11.2 1013.2 0.0
21/10:00am 19.4 9.6 53 5.0 11.2 1013.2 0.0
21/09:30am 18.0 8.8 55 6.1 9.7 1013.2 0.0
21/09:00am 16.7 8.9 60 3.6 11.2 1013.2 0.0
21/08:30am 13.2 8.1 71 2.5 7.2 1013.2 0.0
21/08:00am 13.3 8.2 71 3.6 8.6 1013.2 0.0
21/07:30am 12.2 8.9 80 2.5 6.1 1013.2 0.0
21/07:00am 12.1 8.8 80 1.1 3.6 1013.2 0.0
21/06:30am 12.3 9.3 82 1.1 6.1 1013.2 0.0
21/06:00am 12.1 9.8 86 1.1 7.2 1013.2 0.0
21/05:30am 12.0 10.4 90 0.0 6.1 1013.2 0.0
21/05:00am 11.7 10.3 91 1.1 3.6 1013.2 0.0
21/04:30am 11.8 10.4 91 0.0 2.5 1013.2 0.0
21/04:00am 12.0 10.6 91 0.0 2.5 1013.2 0.0
21/03:30am 12.0 10.6 91 0.0 2.5 1013.2 0.0
21/03:00am 12.4 11.1 92 0.0 1.1 1013.2 0.0
21/02:30am 12.5 10.9 90 1.1 2.5 1013.2 0.0
21/02:00am 12.6 11.2 91 1.1 5.0 1013.2 0.0
21/01:30am 12.7 11.4 92 2.5 6.1 1013.2 0.0
21/01:00am 12.8 11.5 92 0.0 5.0 1013.2 0.0
21/12:30am 13.1 11.8 92 1.1 6.1 1013.2 0.0
21/12:00am 13.2 11.9 92 0.0 0.0 1013.2 0.0
20/11:30pm 13.6 12.3 92 0.0 2.5 1013.2 0.3
20/11:00pm 13.3 12.0 92 0.0 1.1 1013.2 0.3
20/10:30pm 13.2 11.8 91 0.0 2.5 1013.2 0.3
20/10:00pm 13.2 11.6 90 0.0 0.0 1013.2 0.3

OBSERVATIONS  24 - 48  HOURS

00-24 HOURS 24-48 HOURS 48-72 HOURS 72-96 HOURS 96-120 HOURS Navigation Menu

Date/Time
WST
temperature
°C
Dew Point
°C
Humidity
%
Wind Speed
km/h
Wind Gust
km/h
Wind
Direction
Barometer
mb
Rain Today
mm
20/10:30pm 13.2 11.8 91 0.0 2.5 1013.2 0.3
20/10:00pm 13.2 11.6 90 0.0 0.0 1013.2 0.3
20/09:30pm 13.2 11.4 89 0.0 0.0 1013.2 0.3
20/09:00pm 13.5 11.4 87 0.0 0.0 1013.2 0.3
20/08:30pm 13.8 11.3 85 0.0 0.0 1013.2 0.3
20/08:00pm 14.5 11.7 83 0.0 0.0 1013.2 0.3
20/07:30pm 15.2 12.3 83 0.0 2.5 1013.2 0.3
20/07:00pm 15.2 12.2 82 0.0 0.0 1013.2 0.3
20/06:30pm 15.3 12.3 82 0.0 0.0 1013.2 0.3
20/06:00pm 15.7 12.5 81 0.0 3.6 1013.2 0.3
20/05:30pm 15.9 12.7 81 1.1 2.5 1013.2 0.3
20/05:00pm 16.4 13.1 81 2.5 5.0 1013.2 0.3
20/04:30pm 17.0 13.5 80 2.5 3.6 1013.2 0.3
20/04:00pm 16.8 13.3 80 1.1 3.6 1013.2 0.3
20/03:30pm 17.2 12.7 75 1.1 5.0 1013.2 0.0
20/03:00pm 18.3 12.3 68 3.6 9.7 1013.2 0.0
20/02:30pm 19.1 12.6 66 2.5 9.7 1013.2 0.0
20/02:00pm 19.7 12.7 64 3.6 7.2 1013.2 0.0
20/01:30pm 20.8 14.0 65 2.5 8.6 1013.2 0.0
20/01:00pm 18.2 12.6 70 2.5 7.2 1013.2 0.0
20/12:30pm 19.2 13.6 70 3.6 6.1 1013.2 0.0
20/12:00pm 18.2 12.9 71 2.5 7.2 1013.2 0.0
20/11:30am 17.6 12.5 72 3.6 9.7 1013.2 0.0
20/11:00am 17.4 12.3 72 3.6 14.8 1013.2 0.0
20/10:30am 17.2 12.1 72 3.6 8.6 1013.2 0.0
20/10:00am 18.4 11.7 65 5.0 8.6 1013.2 0.0
20/09:30am 18.4 11.5 64 5.0 8.6 1013.2 0.0
20/09:00am 18.2 12.6 70 3.6 9.7 1013.2 0.0
20/08:30am 15.2 11.0 76 2.5 11.2 1013.2 0.0
20/08:00am 14.6 11.2 80 1.1 7.2 1013.2 0.0
20/07:30am 13.8 9.8 77 1.1 6.1 1013.2 0.0
20/07:00am 14.0 9.8 76 0.0 7.2 1013.2 0.0
20/06:30am 13.8 10.0 78 2.5 8.6 1013.2 0.0
20/06:00am 12.8 9.6 81 1.1 6.1 1013.2 0.0
20/05:30am 12.0 10.1 88 1.1 6.1 1013.2 0.0
20/05:00am 11.1 9.0 87 1.1 5.0 1013.2 0.0
20/04:30am 11.5 9.2 86 0.0 7.2 1013.2 0.0
20/04:00am 11.6 9.3 86 0.0 5.0 1013.2 0.0
20/03:30am 11.7 9.4 86 0.0 1.1 1013.2 0.0
20/03:00am 12.0 9.4 84 0.0 3.6 1013.2 0.0
20/02:30am 12.4 10.6 89 0.0 2.5 1013.2 0.0
20/02:00am 12.3 11.4 94 0.0 3.6 1013.2 0.0
20/01:30am 12.3 11.8 97 0.0 3.6 1013.2 0.0
20/01:00am 12.2 11.9 98 0.0 5.0 1013.2 0.0
20/12:30am 12.4 12.1 98 0.0 1.1 1013.2 0.0
20/12:00am 12.8 12.2 96 0.0 2.5 1013.2 0.0
19/11:30pm 13.1 12.5 96 0.0 2.5 1013.2 9.0
19/11:00pm 13.4 12.8 96 0.0 1.1 1013.2 9.0
19/10:30pm 14.0 13.5 97 0.0 3.6 1013.2 9.0
19/10:00pm 14.7 14.2 97 0.0 1.1 1013.2 9.0

OBSERVATIONS  48 - 72  HOURS

00-24 HOURS 24-48 HOURS 48-72 HOURS 72-96 HOURS 96-120 HOURS Navigation Menu

Date/Time
WST
temperature
°C
Dew Point
°C
Humidity
%
Wind Speed
km/h
Wind Gust
km/h
Wind
Direction
Barometer
mb
Rain Today
mm
19/10:30pm 14.0 13.5 97 0.0 3.6 1013.2 9.0
19/10:00pm 14.7 14.2 97 0.0 1.1 1013.2 9.0
19/09:30pm 15.4 15.1 98 0.0 2.5 1013.2 8.7
19/09:00pm 15.8 15.5 98 0.0 2.5 1013.2 8.7
19/08:30pm 15.8 15.5 98 0.0 5.0 1013.2 8.7
19/08:00pm 15.8 15.5 98 0.0 2.5 1013.2 8.7
19/07:31pm 15.8 15.3 97 2.5 5.0 1013.2 8.7
19/07:00pm 15.9 15.4 97 2.5 5.0 1013.2 8.7
19/06:30pm 16.1 15.3 95 1.1 5.0 1013.2 7.2
19/06:00pm 16.3 15.2 93 3.6 6.1 1013.2 6.6
19/05:30pm 16.5 15.2 92 2.5 5.0 1013.2 5.4
19/05:00pm 16.6 15.1 91 0.0 1.1 1013.2 5.1
19/04:30pm 16.7 15.1 90 0.0 5.0 1013.2 5.1
19/04:00pm 16.9 15.3 90 3.6 6.1 1013.2 5.1
19/03:30pm 17.0 15.4 90 0.0 2.5 1013.2 5.1
19/03:00pm 17.1 15.5 90 0.0 2.5 1013.2 4.2
19/02:30pm 16.6 14.4 87 0.0 2.5 1013.2 4.2
19/02:00pm 17.1 14.2 83 1.1 2.5 1013.2 2.4
19/01:30pm 17.9 13.2 74 0.0 5.0 1013.2 1.8
19/01:00pm 20.1 12.6 62 2.5 3.6 1013.2 0.9
19/12:30pm 20.6 13.3 63 2.5 6.1 1013.2 0.9
19/12:00pm 20.7 14.6 68 0.0 5.0 1013.2 0.9
19/11:30am 19.3 14.1 72 2.5 7.2 1013.2 0.9
19/11:00am 22.6 9.1 42 5.0 15.8 1013.2 0.0
19/10:30am 23.9 9.5 40 1.1 17.3 1013.2 0.0
19/10:00am 23.3 9.3 41 5.0 14.8 1013.2 0.0
19/09:30am 23.1 8.8 40 6.1 22.0 1013.2 0.0
19/09:00am 23.1 8.8 40 11.2 19.4 1013.2 0.0
19/08:30am 23.1 8.8 40 8.6 19.4 1013.2 0.0
19/08:00am 22.9 8.6 40 9.7 34.2 1013.2 0.0
19/07:30am 22.7 8.4 40 9.7 29.5 1013.2 0.0
19/07:00am 22.7 8.4 40 11.2 27.0 1013.2 0.0
19/06:30am 22.6 8.3 40 15.8 24.5 1013.2 0.0
19/06:00am 22.5 8.2 40 9.7 24.5 1013.2 0.0
19/05:30am 22.4 9.6 44 18.4 22.0 1013.2 0.0
19/05:00am 22.6 8.7 41 13.3 24.5 1013.2 0.0
19/04:30am 23.0 9.1 41 8.6 27.0 1013.2 0.0
19/04:00am 23.1 8.8 40 11.2 23.4 1013.2 0.0
19/03:30am 23.2 9.2 41 12.2 31.7 1013.2 0.0
19/03:00am 22.5 9.3 43 8.6 18.4 1013.2 0.0
19/02:30am 22.5 9.7 44 7.2 19.4 1013.2 0.0
19/02:00am 22.4 11.2 49 11.2 15.8 1013.2 0.0
19/01:30am 22.3 11.1 49 9.7 20.9 1013.2 0.0
19/01:00am 22.4 11.2 49 8.6 15.8 1013.2 0.0
19/12:30am 21.6 10.1 48 2.5 11.2 1013.2 0.0
19/12:26am 21.5 9.4 46 8.6 11.2 1013.2 0.0
18/11:56pm 21.1 10.0 49 6.1 7.2 1013.2 0.0
18/11:26pm 20.0 9.6 51 2.5 3.6 1013.2 0.0
18/10:56pm 19.5 9.4 52 1.1 2.5 1013.2 0.0
18/10:26pm 19.8 9.4 51 2.5 3.6 1013.2 0.0

OBSERVATIONS  72 - 96  HOURS

00-24 HOURS 24-48 HOURS 48-72 HOURS 72-96 HOURS 96-120 HOURS Navigation Menu

Date/Time
WST
temperature
°C
Dew Point
°C
Humidity
%
Wind Speed
km/h
Wind Gust
km/h
Wind
Direction
Barometer
mb
Rain Today
mm
18/10:56pm 19.5 9.4 52 1.1 2.5 1013.2 0.0
18/10:26pm 19.8 9.4 51 2.5 3.6 1013.2 0.0
18/09:56pm 19.8 9.7 52 3.6 6.1 1013.2 0.0
18/09:00pm 21.7 9.3 45 7.2 19.4 1013.2 0.0
18/08:30pm 21.4 9.6 47 11.2 14.8 1013.2 0.0
18/08:00pm 20.9 10.1 50 3.6 14.8 1013.2 0.0
18/07:30pm 19.8 9.7 52 2.5 8.6 1013.2 0.0
18/07:00pm 19.6 9.5 52 1.1 6.1 1013.2 0.0
18/06:30pm 19.8 9.4 51 3.6 8.6 1013.2 0.0
18/06:00pm 20.1 9.9 52 5.0 9.7 1013.2 0.0
18/05:30pm 20.8 10.6 52 2.5 7.2 1013.2 0.0
18/05:00pm 21.4 10.9 51 3.6 8.6 1013.2 0.0
18/04:30pm 21.9 11.3 51 3.6 7.2 1013.2 0.0
18/04:00pm 23.5 10.6 44 2.5 12.2 1013.2 0.0
18/03:30pm 24.1 10.4 42 7.2 13.3 1013.2 0.0
18/03:00pm 24.2 10.5 42 5.0 9.7 1013.2 0.0
18/02:30pm 24.7 10.2 40 8.6 13.3 1013.2 0.0
18/02:00pm 24.9 10.4 40 3.6 14.8 1013.2 0.0
18/01:30pm 24.7 9.8 39 9.7 14.8 1013.2 0.0
18/01:00pm 25.3 10.0 38 7.2 17.3 1013.2 0.0
18/12:30pm 23.8 10.1 42 7.2 9.7 1013.2 0.0
18/12:00pm 24.0 10.0 41 6.1 13.3 1013.2 0.0
18/11:30am 20.8 9.7 49 6.1 17.3 1013.2 0.0
18/11:00am 19.1 8.4 50 7.2 11.2 1013.2 0.0
18/10:30am 19.2 8.5 50 3.6 9.7 1013.2 0.0
18/10:00am 19.2 8.8 51 2.5 11.2 1013.2 0.0
18/09:30am 19.5 8.8 50 1.1 8.6 1013.2 0.0
18/09:00am 18.8 8.2 50 5.0 9.7 1013.2 0.0
18/08:30am 18.7 8.1 50 1.1 5.0 1013.2 0.0
18/08:00am 16.4 7.9 57 2.5 5.0 1013.2 0.0
18/07:30am 19.5 9.4 52 1.1 2.5 1013.2 0.0
18/07:00am 12.4 5.8 64 2.5 5.0 1013.2 0.0
18/06:30am 12.0 5.2 63 2.5 3.6 1013.2 0.0
18/06:00am 12.0 4.7 61 2.5 5.0 1013.2 0.0
18/05:30am 11.9 4.6 61 2.5 5.0 1013.2 0.0
18/05:00am 11.8 4.3 60 2.5 3.6 1013.2 0.0
18/04:30am 11.7 4.0 59 2.5 3.6 1013.2 0.0
18/04:00am 11.8 4.1 59 1.1 3.6 1013.2 0.0
18/03:30am 11.8 4.3 60 2.5 5.0 1013.2 0.0
18/03:00am 11.8 4.3 60 1.1 3.6 1013.2 0.0
18/02:30am 12.0 4.5 60 1.1 5.0 1013.2 0.0
18/02:00am 11.9 4.4 60 1.1 5.0 1013.2 0.0
18/01:30am 11.7 4.4 61 2.5 5.0 1013.2 0.0
18/01:00am 11.6 4.1 60 1.1 2.5 1013.2 0.0
18/12:30am 12.8 3.7 54 2.5 6.1 1013.2 0.0
18/12:00am 13.2 3.8 53 1.1 5.0 1013.2 0.0
17/11:30pm 13.4 4.0 53 2.5 7.2 1013.2 0.0
17/11:00pm 14.1 3.8 50 3.6 6.1 1013.2 0.0
17/10:30pm 14.3 4.0 50 3.6 7.2 1013.2 0.0
17/10:00pm 14.9 3.7 47 3.6 8.6 1013.2 0.0

OBSERVATIONS  96 - 120  HOURS

00-24 HOURS 24-48 HOURS 48-72 HOURS 72-96 HOURS 96-120 HOURS Navigation Menu

Date/Time
WST
temperature
°C
Dew Point
°C
Humidity
%
Wind Speed
km/h
Wind Gust
km/h
Wind
Direction
Barometer
mb
Rain Today
mm
17/10:30pm 14.3 4.0 50 3.6 7.2 1013.2 0.0
17/10:00pm 14.9 3.7 47 3.6 8.6 1013.2 0.0
17/09:30pm 14.9 3.7 47 2.5 9.7 1013.2 0.0
17/09:00pm 14.5 4.2 50 5.0 7.2 1013.2 0.0
17/08:30pm 14.6 4.3 50 1.1 5.0 1013.2 0.0
17/08:00pm 14.9 5.1 52 2.5 8.6 1013.2 0.0
17/07:30pm 14.8 5.6 54 1.1 6.1 1013.2 0.0
17/07:00pm 14.0 6.1 59 1.1 3.6 1013.2 0.0
17/06:30pm 14.1 6.0 58 1.1 3.6 1013.2 0.0
17/06:00pm 14.6 5.7 55 0.0 0.0 1013.2 0.0
17/05:30pm 15.6 6.1 53 0.0 0.0 1013.2 0.0
17/05:00pm 16.9 6.4 50 0.0 0.0 1013.2 0.0
17/04:30pm 18.0 5.2 43 0.0 0.0 1013.2 0.0
17/04:00pm 18.9 5.0 40 0.0 0.0 1013.2 0.0
17/03:30pm 20.4 5.2 37 1.1 3.6 1013.2 0.0
17/03:00pm 21.0 5.0 35 0.0 3.6 1013.2 0.0
17/02:30pm 22.5 4.1 30 1.1 3.6 1013.2 0.0
17/02:00pm 26.4 5.4 26 1.1 5.0 1013.2 0.0
17/01:30pm 26.7 5.6 26 0.0 5.0 1013.2 0.0
17/01:00pm 25.6 5.8 28 0.0 3.6 1013.2 0.0
17/12:30pm 22.9 4.4 30 1.1 5.0 1013.2 0.0
17/12:00pm 25.1 4.8 27 0.0 9.7 1013.2 0.0
17/11:30am 24.4 4.7 28 5.0 9.7 1013.2 0.0
17/11:00am 23.3 4.3 29 7.2 13.3 1013.2 0.0
17/10:30am 22.0 4.6 32 5.0 12.2 1013.2 0.0
17/10:00am 20.8 4.8 35 6.1 11.2 1013.2 0.0
17/09:30am 20.3 5.9 39 6.1 9.7 1013.2 0.0
17/09:00am 19.1 5.2 40 6.1 11.2 1013.2 0.0
17/08:30am 18.0 4.6 41 6.1 8.6 1013.2 0.0
17/08:00am 15.4 5.3 51 3.6 7.2 1013.2 0.0
17/07:30am 11.4 4.4 62 0.0 2.5 1013.2 0.0
17/07:00am 11.1 4.3 63 0.0 3.6 1013.2 0.0
17/06:30am 11.4 4.6 63 0.0 2.5 1013.2 0.0
17/06:00am 11.6 4.6 62 2.5 5.0 1013.2 0.0
17/05:30am 12.0 4.9 62 2.5 5.0 1013.2 0.0
17/05:00am 12.3 5.2 62 2.5 8.6 1013.2 0.0
17/04:30am 12.4 5.3 62 2.5 9.7 1013.2 0.0
17/04:00am 12.3 5.7 64 3.6 6.1 1013.2 0.0
17/03:30am 12.6 5.3 61 1.1 6.1 1013.2 0.0
17/03:00am 12.7 5.4 61 2.5 7.2 1013.2 0.0
17/02:30am 12.2 6.3 67 5.0 7.2 1013.2 0.0
17/02:00am 11.6 5.7 67 1.1 2.5 1013.2 0.0
17/01:30am 12.7 5.4 61 0.0 3.6 1013.2 0.0
17/01:00am 13.4 5.6 59 1.1 5.0 1013.2 0.0
17/12:30am 13.6 5.5 58 3.6 6.1 1013.2 0.0
17/12:00am 13.6 5.7 59 3.6 6.1 1013.2 0.0
16/11:30pm 13.2 5.6 60 5.0 7.2 1013.2 0.0
16/11:00pm 10.8 6.4 74 3.6 5.0 1013.2 0.0
16/10:30pm 9.3 4.7 73 0.0 0.0 1013.2 0.0
16/10:00pm 11.3 6.8 74 0.0 1.1 1013.2 0.0

00-24 HOURS 24-48 HOURS 48-72 HOURS 72-96 HOURS 96-120 HOURS Navigation Menu


PLEASE CONSIDER LIKING/SHARING ON FACEBOOK WITH LINK ABOVE
THANK YOU.

Check out my video archive on my YouTube channel which has all my time-lapse videos created
Please feel free to donate to help with improvements and keep this site going with the link below(PayPal)
Cumulus Top Weather Sites World Weather Websites Paulen Top 100 Weatherstation List

Page updated 21/05/2019 10:30 PM
powered by Cumulusv1.9.4 (1099)
Free counters!
Insect leftPhyllium MonteithiInsect Right
Visit my FaceBook group : Australian Leaf Insect Care/Information Sharing


Speaker Icon Turns Ambient Background Sounds ON/OFF